Time;durP1;ratioP1;P1;durP2;ratioP2;P2;SDS_P1;SDS_P2;PMS_P1;PMS_P2;Temp;Humidity;BMP_temperature;BMP_pressure;BME280_temperature;BME280_humidity;BME280_pressure;Samples;Min_cycle;Max_cycle;Signal;HPM_P1;HPM_P2
2022/08/13 00:01:22;;;;;;;8.15;6.83;;;;;;;17.46;73.25;98730.62;1677420;85;26280;-58
2022/08/13 00:03:52;;;;;;;15.35;8.15;;;;;;;17.48;73.26;98721.37;1677581;85;25631;-58
2022/08/13 00:06:38;;;;;;;9.60;7.33;;;;;;;17.55;73.06;98718.20;1677235;84;25940;-58
2022/08/13 00:08:49;;;;;;;8.58;7.08;;;;;;;17.52;73.28;98725.84;1674960;85;25502;-58
2022/08/13 00:12:56;;;;;;;11.50;7.80;;;;;;;17.40;73.60;98725.94;1677642;85;25510;-58
2022/08/13 00:13:45;;;;;;;9.50;7.53;;;;;;;17.33;74.54;98726.59;1674610;85;25591;-58
2022/08/13 00:16:12;;;;;;;10.25;7.87;;;;;;;17.33;74.59;98725.77;1676408;84;25463;-58
2022/08/13 00:18:40;;;;;;;10.72;7.83;;;;;;;17.39;74.90;98720.19;1675451;85;28218;-58
2022/08/13 00:21:07;;;;;;;10.50;8.85;;;;;;;17.41;75.26;98722.00;1675055;85;25625;-58
2022/08/13 00:23:33;;;;;;;13.25;8.13;;;;;;;17.37;76.01;98721.93;1675441;85;25700;-58
2022/08/13 00:26:00;;;;;;;9.33;8.28;;;;;;;17.35;76.07;98712.34;1675232;85;25789;-58
2022/08/13 00:28:28;;;;;;;10.98;9.00;;;;;;;17.33;76.33;98711.92;1675483;85;25703;-58
2022/08/13 00:30:59;;;;;;;11.57;7.83;;;;;;;17.34;76.65;98707.41;1675446;85;27457;-58
2022/08/13 00:33:25;;;;;;;14.83;9.03;;;;;;;17.37;77.62;98706.70;1675201;85;25910;-58
2022/08/13 00:35:53;;;;;;;9.53;8.28;;;;;;;17.43;76.97;98696.14;1675442;85;25665;-58
2022/08/13 00:38:24;;;;;;;10.98;8.65;;;;;;;17.49;77.19;98698.05;1675311;85;26728;-58
2022/08/13 00:40:57;;;;;;;10.82;8.78;;;;;;;17.54;77.59;98694.44;1675402;85;25688;-58
2022/08/13 00:43:26;;;;;;;12.70;8.80;;;;;;;17.51;78.42;98694.34;1675238;85;26767;-58
2022/08/13 00:45:55;;;;;;;10.23;8.40;;;;;;;17.42;78.55;98688.40;1674737;85;25905;-58
2022/08/13 00:51:10;;;;;;;11.20;8.58;;;;;;;17.46;78.92;98693.22;1675049;85;25640;-58
2022/08/13 00:53:39;;;;;;;10.68;8.48;;;;;;;17.42;79.70;98691.17;1675347;85;25470;-58
2022/08/13 00:56:12;;;;;;;11.45;8.68;;;;;;;17.42;79.51;98687.61;1675331;85;27457;-58
2022/08/13 00:58:36;;;;;;;;;;;;;;;17.40;79.39;98685.77;1675869;85;25826;-58
2022/08/13 01:01:04;;;;;;;13.28;9.28;;;;;;;17.38;80.35;98683.36;1675480;85;25684;-58
2022/08/13 01:03:36;;;;;;;12.43;9.03;;;;;;;17.33;80.48;98680.88;1675285;85;26506;-58
2022/08/13 01:06:05;;;;;;;10.80;8.45;;;;;;;17.33;79.80;98680.07;1675641;85;25459;-58
2022/08/13 01:08:36;;;;;;;10.45;8.35;;;;;;;17.29;80.11;98682.17;1675181;85;27529;-58
2022/08/13 01:11:11;;;;;;;12.60;8.95;;;;;;;17.27;80.80;98680.94;1675415;85;25729;-59
2022/08/13 01:13:42;;;;;;;11.78;9.18;;;;;;;17.21;81.12;98687.30;1674886;85;25489;-58
2022/08/13 01:16:13;;;;;;;;;;;;;;;17.13;81.45;98693.24;1678883;85;26727;-59
2022/08/13 01:18:44;;;;;;;13.43;9.55;;;;;;;17.09;81.12;98684.63;1679405;85;25698;-58
2022/08/13 01:21:15;;;;;;;13.50;9.33;;;;;;;17.04;81.43;98679.55;1678019;85;27521;-58
2022/08/13 01:23:46;;;;;;;11.57;9.10;;;;;;;17.03;81.33;98680.72;1679537;84;25921;-59
2022/08/13 01:26:19;;;;;;;13.08;9.48;;;;;;;17.01;81.64;98678.09;1679346;84;25616;-59
2022/08/13 01:28:50;;;;;;;13.62;9.08;;;;;;;17.00;81.62;98664.83;1679506;85;25877;-59
2022/08/13 01:31:18;;;;;;;11.63;9.20;;;;;;;17.08;81.28;98664.45;1679715;84;25537;-59
2022/08/13 01:33:48;;;;;;;11.73;8.38;;;;;;;17.12;80.94;98655.65;1679556;85;28225;-58
2022/08/13 01:36:16;;;;;;;13.22;8.63;;;;;;;17.09;82.40;98666.05;1679631;84;33136;-59
2022/08/13 01:38:43;;;;;;;11.43;9.43;;;;;;;17.03;82.37;98669.65;1679795;85;25495;-59
2022/08/13 01:41:11;;;;;;;11.90;9.00;;;;;;;17.00;82.52;98656.52;1679447;84;26610;-59
2022/08/13 01:43:40;;;;;;;11.12;9.53;;;;;;;17.00;83.27;98662.63;1679863;84;25619;-59
2022/08/13 01:46:10;;;;;;;12.47;9.73;;;;;;;16.98;83.59;98659.44;1679949;84;27424;-59
2022/08/13 01:51:35;;;;;;;12.50;9.43;;;;;;;17.06;83.34;98656.48;1679633;85;25616;-59
2022/08/13 01:54:04;;;;;;;12.80;9.78;;;;;;;17.09;83.50;98656.94;1679591;85;25855;-59
2022/08/13 01:56:32;;;;;;;13.43;9.63;;;;;;;17.09;83.59;98661.90;1679507;85;25471;-59
2022/08/13 01:59:03;;;;;;;14.15;9.93;;;;;;;17.12;83.15;98654.84;1679767;84;27490;-59
2022/08/13 02:01:31;;;;;;;12.30;9.33;;;;;;;17.15;83.07;98654.12;1679774;84;25965;-59
2022/08/13 02:03:58;;;;;;;11.60;9.08;;;;;;;17.14;83.28;98656.11;1679709;85;25566;-59
2022/08/13 02:06:29;;;;;;;13.22;9.90;;;;;;;17.13;83.45;98657.25;1679811;84;25859;-59
2022/08/13 02:09:00;;;;;;;13.43;10.10;;;;;;;17.12;83.30;98656.22;1679486;84;25666;-59
2022/08/13 02:11:34;;;;;;;12.07;9.03;;;;;;;17.10;83.38;98651.04;1679310;85;27335;-59
2022/08/13 02:14:03;;;;;;;12.20;9.45;;;;;;;17.08;83.67;98649.23;1679715;85;25700;-59
2022/08/13 02:16:36;;;;;;;13.25;9.75;;;;;;;17.09;83.57;98648.06;1678343;84;25645;-59
2022/08/13 02:19:07;;;;;;;12.03;9.48;;;;;;;17.10;83.49;98647.48;1675605;85;25748;-59
2022/08/13 02:21:37;;;;;;;12.35;9.83;;;;;;;17.11;83.47;98650.47;1675419;85;25594;-59
2022/08/13 02:24:08;;;;;;;12.33;9.43;;;;;;;17.12;83.47;98639.61;1675761;85;27443;-59
2022/08/13 02:26:35;;;;;;;15.15;9.88;;;;;;;17.10;84.11;98639.97;1675538;85;25621;-59
2022/08/13 02:29:04;;;;;;;13.38;9.65;;;;;;;17.08;84.12;98631.23;1675351;85;25494;-59
2022/08/13 02:31:34;;;;;;;12.80;9.80;;;;;;;17.11;83.91;98638.01;1675508;85;25854;-59
2022/08/13 02:34:01;;;;;;;11.08;8.88;;;;;;;17.12;83.89;98631.30;1675457;85;25460;-59
2022/08/13 02:36:28;;;;;;;13.80;9.88;;;;;;;17.13;84.63;98637.86;1675299;85;28493;-59
2022/08/13 02:39:01;;;;;;;12.40;9.45;;;;;;;17.14;84.51;98631.75;1675546;85;25455;-59
2022/08/13 02:41:43;;;;;;;13.28;10.38;;;;;;;17.14;85.40;98638.11;1675478;85;25716;-59
2022/08/13 02:44:19;;;;;;;12.75;9.90;;;;;;;17.14;85.05;98642.83;1675248;85;25817;-59
2022/08/13 02:46:50;;;;;;;13.13;10.35;;;;;;;17.17;84.90;98644.31;1675745;85;25454;-59
2022/08/13 02:49:21;;;;;;;12.75;9.68;;;;;;;17.18;84.99;98645.09;1675173;85;27426;-59
2022/08/13 02:51:59;;;;;;;12.80;9.90;;;;;;;17.18;85.17;98645.09;1675486;85;27224;-59
2022/08/13 02:54:30;;;;;;;11.95;9.85;;;;;;;17.22;85.21;98641.86;1674533;85;25499;-59
2022/08/13 02:57:01;;;;;;;13.32;9.40;;;;;;;17.24;85.31;98640.11;1675382;85;25938;-59
2022/08/13 02:59:34;;;;;;;12.82;9.58;;;;;;;17.25;85.51;98638.37;1675330;85;25712;-61
2022/08/13 03:02:15;;;;;;;14.80;9.55;;;;;;;17.27;85.50;98642.16;1675540;85;27429;-59
2022/08/13 03:04:46;;;;;;;13.53;10.10;;;;;;;17.28;85.50;98641.80;1675087;85;25665;-59
2022/08/13 03:07:12;;;;;;;13.25;10.00;;;;;;;17.30;85.24;98639.46;1675632;85;25520;-59
2022/08/13 03:09:38;;;;;;;13.62;9.88;;;;;;;17.38;85.11;98635.46;1675382;85;26524;-59
2022/08/13 03:12:08;;;;;;;13.13;10.20;;;;;;;17.37;85.28;98631.91;1676032;85;25588;-59
2022/08/13 03:14:37;;;;;;;14.40;10.50;;;;;;;17.36;85.09;98634.44;1675722;85;28168;-60
2022/08/13 03:17:04;;;;;;;12.65;10.10;;;;;;;17.38;84.97;98636.84;1676818;85;25928;-59
2022/08/13 03:19:30;;;;;;;12.85;10.00;;;;;;;17.41;84.93;98640.28;1679423;85;25649;-60
2022/08/13 03:21:57;;;;;;;14.63;10.20;;;;;;;17.38;85.02;98643.20;1679405;85;25835;-59
2022/08/13 03:24:23;;;;;;;14.95;9.85;;;;;;;17.38;85.02;98641.00;1679495;85;25651;-59
2022/08/13 03:26:52;;;;;;;13.58;9.65;;;;;;;17.36;85.24;98639.20;1679678;84;27603;-59
2022/08/13 03:29:18;;;;;;;14.83;9.98;;;;;;;17.37;85.19;98638.02;1679333;84;25544;-60
2022/08/13 03:31:44;;;;;;;15.35;10.95;;;;;;;17.36;85.17;98634.44;1679355;85;25520;-59
2022/08/13 03:34:11;;;;;;;15.08;10.70;;;;;;;17.37;85.11;98625.55;1679605;85;26021;-59
2022/08/13 03:36:37;;;;;;;14.18;9.93;;;;;;;17.43;84.97;98627.70;1679794;85;25623;-60
2022/08/13 03:39:05;;;;;;;14.10;10.48;;;;;;;17.46;85.29;98628.94;1679359;85;27565;-59
2022/08/13 03:41:31;;;;;;;15.83;10.95;;;;;;;17.47;85.02;98626.38;1679567;85;25670;-59
2022/08/13 03:43:59;;;;;;;13.93;10.53;;;;;;;17.49;85.40;98626.83;1679610;85;25253;-59
2022/08/13 03:46:27;;;;;;;15.98;11.03;;;;;;;17.51;85.62;98630.63;1679282;85;25502;-59
2022/08/13 03:48:54;;;;;;;16.85;10.43;;;;;;;17.50;85.57;98638.72;1679356;85;25761;-59
2022/08/13 03:51:22;;;;;;;14.47;10.95;;;;;;;17.53;85.68;98633.24;1679251;85;27524;-59
2022/08/13 03:53:53;;;;;;;13.50;10.18;;;;;;;17.51;85.89;98632.82;1679196;85;26029;-59
2022/08/13 03:56:23;;;;;;;13.40;10.23;;;;;;;17.50;86.44;98630.41;1679441;85;25748;-59
2022/08/13 03:58:51;;;;;;;14.70;10.45;;;;;;;17.48;85.97;98629.39;1679666;85;26976;-59
2022/08/13 04:01:18;;;;;;;14.28;10.48;;;;;;;17.54;86.03;98629.33;1679537;85;25743;-59
2022/08/13 04:03:45;;;;;;;14.18;10.43;;;;;;;17.56;85.73;98620.05;1679536;85;27468;-59
2022/08/13 04:06:16;;;;;;;13.58;10.35;;;;;;;17.60;85.70;98621.53;1679535;85;25466;-59
2022/08/13 04:08:45;;;;;;;14.53;10.58;;;;;;;17.68;85.42;98621.89;1679201;85;25665;-59
2022/08/13 04:11:15;;;;;;;13.80;10.18;;;;;;;17.77;85.06;98624.47;1679205;85;25695;-59
2022/08/13 04:13:43;;;;;;;13.53;9.93;;;;;;;17.85;84.67;98624.05;1679926;85;25716;-59
2022/08/13 04:16:14;;;;;;;13.15;9.98;;;;;;;17.86;84.73;98631.19;1679243;85;29566;-59
2022/08/13 04:18:42;;;;;;;14.28;10.20;;;;;;;17.86;84.78;98628.98;1677034;85;25667;-59
2022/08/13 04:21:11;;;;;;;15.75;10.72;;;;;;;17.83;85.07;98627.75;1677563;85;25496;-59
2022/08/13 04:23:39;;;;;;;14.25;10.53;;;;;;;17.83;85.00;98630.52;1677521;85;25620;-59
2022/08/13 04:26:14;;;;;;;14.85;10.72;;;;;;;17.84;84.77;98630.73;1677774;85;25652;-59
2022/08/13 04:28:42;;;;;;;15.08;10.58;;;;;;;17.84;84.72;98625.19;1677331;85;27414;-59
2022/08/13 04:31:10;;;;;;;14.30;10.15;;;;;;;17.89;84.63;98630.45;1677221;85;25613;-60
2022/08/13 04:33:37;;;;;;;13.48;9.80;;;;;;;17.88;84.55;98624.67;1677210;85;25498;-59
2022/08/13 04:36:05;;;;;;;14.65;10.55;;;;;;;17.84;84.92;98630.73;1677536;84;26471;-59
2022/08/13 04:38:32;;;;;;;13.45;9.88;;;;;;;17.84;84.99;98631.34;1677581;85;25507;-60
2022/08/13 04:40:58;;;;;;;13.53;10.15;;;;;;;17.84;85.11;98622.42;1677929;84;28213;-59
2022/08/13 04:43:24;;;;;;;13.03;10.10;;;;;;;17.85;85.16;98626.81;1677254;85;25502;-59
2022/08/13 04:45:51;;;;;;;14.18;10.40;;;;;;;17.87;85.30;98626.42;1677345;84;25733;-60
2022/08/13 04:48:18;;;;;;;14.13;10.15;;;;;;;17.84;85.45;98629.34;1677715;85;25739;-59
2022/08/13 04:50:48;;;;;;;14.53;10.78;;;;;;;17.83;85.58;98620.82;1677670;85;25597;-60
2022/08/13 04:53:38;;;;;;;14.53;10.40;;;;;;;17.84;85.50;98618.27;1677465;85;28256;-59
2022/08/13 04:56:05;;;;;;;15.25;10.68;;;;;;;17.89;85.43;98622.71;1677530;85;25527;-60
2022/08/13 04:58:35;;;;;;;16.23;10.65;;;;;;;17.94;85.12;98613.52;1677620;85;25444;-60
2022/08/13 05:01:09;;;;;;;13.50;10.20;;;;;;;18.08;85.00;98611.41;1677325;85;25707;-60
2022/08/13 05:03:39;;;;;;;14.05;10.28;;;;;;;18.12;85.27;98613.69;1677633;85;25605;-60
2022/08/13 05:06:11;;;;;;;13.78;10.15;;;;;;;18.19;84.66;98604.12;1677106;85;28064;-59
2022/08/13 05:08:38;;;;;;;13.60;10.10;;;;;;;18.26;84.77;98609.83;1677233;85;25724;-60
2022/08/13 05:11:06;;;;;;;12.35;9.28;;;;;;;18.36;84.43;98606.23;1677259;85;25681;-59
2022/08/13 05:13:36;;;;;;;14.18;10.30;;;;;;;18.39;84.39;98611.83;1677276;84;26614;-60
2022/08/13 05:16:07;;;;;;;12.95;10.55;;;;;;;18.39;84.13;98609.06;1677505;85;25644;-59
2022/08/13 05:18:37;;;;;;;13.28;11.00;;;;;;;18.42;84.15;98620.00;1675836;85;27355;-59
2022/08/13 05:21:08;;;;;;;13.45;10.13;;;;;;;18.45;84.00;98618.48;1675366;85;25631;-60
2022/08/13 05:23:36;;;;;;;;;;;;;;;18.48;83.99;98616.36;1677834;85;25684;-60
2022/08/13 05:26:02;;;;;;;14.18;10.53;;;;;;;18.45;83.98;98613.71;1675243;85;26597;-60
2022/08/13 05:28:31;;;;;;;15.95;11.10;;;;;;;18.43;84.14;98618.84;1675393;85;25205;-61
2022/08/13 05:30:58;;;;;;;13.20;10.32;;;;;;;18.46;83.77;98615.91;1675068;85;26901;-59
2022/08/13 05:33:28;;;;;;;14.45;11.20;;;;;;;18.52;83.73;98618.60;1675293;85;25466;-60
2022/08/13 05:35:59;;;;;;;14.45;10.28;;;;;;;18.53;83.55;98614.07;1675464;85;25456;-59
2022/08/13 05:38:28;;;;;;;12.75;10.45;;;;;;;18.60;83.56;98613.41;1675488;85;25694;-59
2022/08/13 05:40:58;;;;;;;15.35;10.23;;;;;;;18.68;83.31;98604.59;1675285;85;25483;-59
2022/08/13 05:43:29;;;;;;;14.07;10.48;;;;;;;18.76;82.95;98610.50;1675308;85;27332;-59
2022/08/13 05:45:59;;;;;;;14.33;10.40;;;;;;;18.76;82.96;98607.72;1675374;85;25625;-59
2022/08/13 05:48:29;;;;;;;14.63;10.77;;;;;;;18.73;82.93;98609.04;1675259;85;25693;-60
2022/08/13 05:50:59;;;;;;;12.20;8.80;;;;;;;18.78;83.33;98605.97;1675425;85;25690;-59
2022/08/13 05:53:26;;;;;;;13.68;10.23;;;;;;;18.82;83.04;98609.59;1675586;85;25603;-59
2022/08/13 05:55:54;;;;;;;15.63;10.10;;;;;;;18.84;82.99;98611.42;1675080;85;27545;-59
2022/08/13 05:58:23;;;;;;;14.50;9.75;;;;;;;18.96;82.95;98608.22;1675433;85;25666;-59
2022/08/13 06:03:32;;;;;;;12.35;9.53;;;;;;;18.83;82.60;98610.41;1620607;88;25637;-60
2022/08/13 06:06:03;;;;;;;11.15;7.78;;;;;;;18.86;82.82;98616.03;1620789;88;25483;-59
2022/08/13 06:08:39;;;;;;;14.13;9.75;;;;;;;18.92;82.77;98608.99;1620734;88;26874;-59
2022/08/13 06:11:17;;;;;;;12.37;8.75;;;;;;;18.92;82.59;98610.95;1620940;88;25705;-59
2022/08/13 06:13:46;;;;;;;12.50;9.43;;;;;;;18.91;82.71;98616.30;1620725;88;25506;-59
2022/08/13 06:16:14;;;;;;;14.37;10.73;;;;;;;18.93;82.96;98610.59;1621194;88;26424;-60
